createdAt,value
2018-12-07T00:16:15.227Z,78.54
2018-12-07T00:21:08.579Z,78.97
2018-12-07T00:26:01.948Z,78.48
2018-12-07T00:30:55.236Z,78.35
2018-12-07T00:41:13.661Z,78.21
2018-12-07T00:46:06.949Z,78.51
2018-12-07T00:51:00.477Z,79.18
2018-12-07T00:55:53.775Z,79.32
2018-12-07T01:17:01.101Z,79.71
2018-12-07T01:21:54.476Z,80.33
2018-12-07T01:26:47.856Z,80.28
2018-12-07T01:31:41.143Z,80.16
2018-12-07T01:52:48.671Z,80.65
2018-12-07T01:57:41.975Z,79.90
2018-12-07T02:02:35.335Z,80.30
2018-12-07T02:07:32.626Z,80.45
2018-12-07T02:12:26.008Z,80.30
2018-12-07T02:22:44.385Z,80.61
2018-12-07T02:32:53.117Z,79.90
2018-12-07T02:37:46.383Z,80.05
2018-12-07T02:42:39.885Z,80.51
2018-12-07T02:47:33.185Z,79.94
2018-12-07T03:08:40.671Z,79.02
2018-12-07T03:13:34.023Z,79.09
2018-12-07T03:18:32.037Z,79.07
2018-12-07T03:23:25.487Z,79.28
2018-12-07T03:28:18.994Z,79.18
2018-12-07T03:49:26.649Z,78.94
2018-12-07T03:54:19.937Z,78.44
2018-12-07T03:59:13.223Z,79.27
2018-12-07T04:04:06.558Z,79.23
2018-12-07T04:08:59.841Z,78.69
2018-12-07T04:24:43.277Z,78.67
2018-12-07T04:29:36.558Z,77.68
2018-12-07T04:34:29.892Z,77.60
2018-12-07T04:39:23.174Z,78.18
2018-12-07T05:00:30.788Z,78.55
2018-12-07T05:05:25.079Z,78.50
2018-12-07T05:10:18.365Z,78.61
2018-12-07T05:15:12.027Z,78.61
2018-12-07T05:20:06.031Z,78.91
2018-12-07T05:41:14.218Z,79.17
2018-12-07T05:46:07.488Z,79.92
2018-12-07T05:51:00.872Z,79.35
2018-12-07T05:55:54.139Z,79.51
2018-12-07T06:17:01.962Z,78.70
2018-12-07T06:21:55.243Z,78.61
2018-12-07T06:26:48.556Z,77.44
2018-12-07T06:31:42.099Z,78.10
2018-12-07T06:36:35.394Z,78.21
2018-12-07T06:57:49.588Z,78.47
2018-12-07T07:02:43.588Z,78.60
2018-12-07T07:07:37.195Z,78.82
2018-12-07T07:12:30.595Z,78.86
2018-12-07T07:17:23.889Z,79.15
2018-12-07T07:22:17.436Z,78.46
2018-12-07T07:27:10.862Z,78.99
2018-12-07T07:32:04.902Z,78.44
2018-12-07T07:36:58.355Z,78.44
2018-12-07T07:58:06.892Z,77.32
2018-12-07T08:03:00.195Z,76.67
2018-12-07T08:07:55.552Z,76.78
2018-12-07T08:12:49.160Z,77.18
2018-12-07T08:33:56.552Z,75.97
2018-12-07T08:38:49.849Z,74.91
2018-12-07T08:43:43.139Z,74.58
2018-12-07T08:48:36.812Z,74.09
2018-12-07T08:53:30.076Z,73.13
2018-12-07T09:09:12.969Z,73.29
2018-12-07T09:14:07.978Z,73.20
2018-12-07T09:19:01.342Z,72.59
2018-12-07T09:23:54.625Z,73.10
2018-12-07T09:45:03.130Z,72.56
2018-12-07T09:49:56.431Z,72.99
2018-12-07T09:54:53.351Z,72.51
2018-12-07T09:59:46.735Z,71.96
2018-12-07T10:04:40.135Z,71.72
2018-12-07T10:09:33.625Z,72.62
2018-12-07T10:14:27.067Z,72.77
2018-12-07T10:19:22.390Z,71.80
2018-12-07T10:24:15.766Z,72.28
2018-12-07T10:45:24.374Z,70.15
2018-12-07T10:50:23.594Z,69.07
2018-12-07T10:55:17.011Z,68.83
2018-12-07T11:11:00.033Z,68.40
2018-12-07T11:15:59.543Z,67.26
2018-12-07T11:20:59.272Z,67.48
2018-12-07T11:47:12.100Z,66.08
2018-12-07T11:52:05.530Z,66.65
2018-12-07T11:56:58.982Z,66.23
2018-12-07T12:01:52.348Z,66.72
2018-12-07T12:06:45.688Z,65.37
2018-12-07T12:27:54.198Z,67.00
2018-12-07T12:32:48.553Z,67.20
2018-12-07T12:37:42.413Z,69.02
2018-12-07T12:42:35.736Z,68.50
2018-12-07T12:47:29.020Z,69.48
2018-12-07T13:03:12.513Z,69.47
2018-12-07T13:08:05.968Z,69.80
2018-12-07T13:12:59.365Z,70.41
2018-12-07T13:17:52.692Z,70.30
2018-12-07T13:38:59.880Z,71.64
2018-12-07T13:43:53.261Z,71.00
2018-12-07T13:48:46.773Z,69.54
2018-12-07T13:53:40.469Z,71.05
2018-12-07T13:58:33.941Z,70.55
2018-12-07T14:19:42.231Z,72.27
2018-12-07T14:24:35.645Z,72.48
2018-12-07T14:29:29.821Z,72.91
2018-12-07T14:34:23.703Z,72.42
2018-12-07T14:55:37.927Z,71.76
2018-12-07T15:00:31.675Z,72.15
2018-12-07T15:05:25.072Z,72.84
2018-12-07T15:10:18.481Z,73.58
2018-12-07T15:31:26.798Z,76.35
2018-12-07T15:36:20.310Z,76.99
2018-12-07T15:41:13.618Z,77.36
2018-12-07T15:46:06.975Z,78.12
2018-12-07T15:51:30.211Z,77.45
2018-12-07T15:56:23.717Z,78.26
2018-12-07T16:01:18.667Z,78.85
2018-12-07T16:06:12.304Z,78.60
2018-12-07T16:11:05.774Z,77.88
2018-12-07T16:32:13.409Z,77.80
2018-12-07T16:37:06.914Z,79.23
2018-12-07T16:42:00.493Z,79.41
2018-12-07T16:46:53.886Z,78.54
2018-12-07T16:51:47.490Z,79.20
2018-12-07T16:56:41.598Z,80.08
2018-12-07T17:01:35.162Z,79.91
2018-12-07T17:06:28.764Z,79.77
2018-12-07T17:27:36.423Z,79.53
2018-12-07T17:32:29.906Z,79.53
2018-12-07T17:37:23.329Z,79.64
2018-12-07T17:42:16.725Z,80.05
2018-12-07T17:47:10.039Z,79.15
2018-12-07T18:08:18.212Z,76.32
2018-12-07T18:13:11.758Z,76.46
2018-12-07T18:18:05.407Z,75.02
2018-12-07T18:22:58.901Z,74.00
2018-12-07T18:27:52.707Z,74.19
2018-12-07T18:43:02.753Z,75.39
2018-12-07T18:47:56.389Z,77.03
2018-12-07T18:52:49.981Z,78.08
2018-12-07T18:57:43.608Z,78.75
2018-12-07T19:02:37.104Z,78.74
2018-12-07T19:23:45.582Z,82.30
2018-12-07T19:28:39.418Z,82.89
2018-12-07T19:33:32.972Z,83.53
2018-12-07T19:38:26.376Z,83.44
2018-12-07T19:43:19.878Z,82.84
2018-12-07T20:04:27.633Z,82.99
2018-12-07T20:09:21.024Z,82.85
2018-12-07T20:14:14.449Z,83.48
2018-12-07T20:19:08.262Z,83.25
2018-12-07T20:24:02.046Z,82.82
2018-12-07T20:39:45.371Z,81.54
2018-12-07T20:44:38.974Z,82.62
2018-12-07T20:49:32.629Z,83.61
2018-12-07T20:54:26.088Z,84.51
2018-12-07T21:15:34.710Z,86.10
2018-12-07T21:20:28.190Z,83.85
2018-12-07T21:25:21.643Z,80.07
2018-12-07T21:30:46.181Z,79.62
2018-12-07T21:36:02.771Z,79.41
2018-12-07T21:40:56.413Z,75.08
2018-12-07T21:45:49.765Z,74.10
2018-12-07T21:50:46.222Z,74.28
2018-12-07T21:55:39.844Z,74.36
2018-12-07T22:16:46.778Z,74.38
2018-12-07T22:21:40.283Z,75.50
2018-12-07T22:26:34.072Z,76.61
2018-12-07T22:31:27.839Z,76.81
2018-12-07T22:36:21.904Z,77.53
2018-12-07T22:57:29.115Z,76.74
2018-12-07T23:02:22.460Z,79.39
2018-12-07T23:07:15.739Z,81.10
2018-12-07T23:12:09.129Z,80.25
2018-12-07T23:33:16.958Z,81.86
2018-12-07T23:38:10.230Z,82.31
2018-12-07T23:48:12.588Z,80.97
2018-12-07T23:53:05.927Z,81.04
2018-12-07T23:57:59.277Z,81.35
